Time;durP1;ratioP1;P1;durP2;ratioP2;P2;SDS_P1;SDS_P2;PMS_P1;PMS_P2;Temp;Humidity;BMP_temperature;BMP_pressure;BME280_temperature;BME280_humidity;BME280_pressure;Samples;Min_cycle;Max_cycle;Signal;HPM_P1;HPM_P2
2022/09/03 00:00:06;;;;;;;;;14.50;14.50;;;;;;;;5023550;28;8855;-78
2022/09/03 00:02:42;;;;;;;;;12.00;12.00;;;;;;;;5023729;28;8848;-77
2022/09/03 00:05:17;;;;;;;;;12.75;12.75;;;;;;;;5024850;28;8825;-78
2022/09/03 00:07:49;;;;;;;;;13.00;12.25;;;;;;;;5023426;28;8872;-78
2022/09/03 00:10:23;;;;;;;;;16.25;15.00;;;;;;;;5024472;28;8915;-78
2022/09/03 00:12:53;;;;;;;;;14.00;14.00;;;;;;;;5023502;28;8983;-78
2022/09/03 00:15:22;;;;;;;;;13.25;12.25;;;;;;;;5024287;28;8861;-78
2022/09/03 00:17:54;;;;;;;;;16.50;15.00;;;;;;;;5023889;28;8872;-78
2022/09/03 00:20:27;;;;;;;;;17.75;15.25;;;;;;;;5023274;28;8876;-78
2022/09/03 00:22:57;;;;;;;;;12.75;12.75;;;;;;;;5024416;28;8887;-77
2022/09/03 00:25:29;;;;;;;;;16.00;16.00;;;;;;;;5023262;28;8991;-78
2022/09/03 00:27:58;;;;;;;;;16.25;16.25;;;;;;;;5022145;28;9583;-78
2022/09/03 00:30:28;;;;;;;;;14.50;13.50;;;;;;;;5011205;28;8773;-78
2022/09/03 00:32:58;;;;;;;;;16.50;15.50;;;;;;;;5020518;28;8950;-78
2022/09/03 00:35:29;;;;;;;;;16.25;16.25;;;;;;;;5023396;28;8980;-79
2022/09/03 00:37:57;;;;;;;;;15.50;15.50;;;;;;;;5022964;28;8892;-78
2022/09/03 00:40:36;;;;;;;;;14.25;14.25;;;;;;;;5024100;28;8868;-78
2022/09/03 00:43:11;;;;;;;;;13.50;13.50;;;;;;;;5020958;28;8954;-79
2022/09/03 00:45:44;;;;;;;;;12.25;12.25;;;;;;;;5006227;28;8880;-78
2022/09/03 00:48:21;;;;;;;;;13.75;13.75;;;;;;;;5023752;28;8880;-78
2022/09/03 00:51:01;;;;;;;;;15.25;15.25;;;;;;;;5022282;28;8887;-78
2022/09/03 00:53:35;;;;;;;;;13.50;13.50;;;;;;;;5024034;28;8891;-78
2022/09/03 00:56:07;;;;;;;;;14.75;14.75;;;;;;;;5004360;28;8884;-79
2022/09/03 00:58:50;;;;;;;;;15.50;13.25;;;;;;;;5024541;28;8880;-79
2022/09/03 01:01:20;;;;;;;;;14.50;14.50;;;;;;;;5021236;28;8809;-79
2022/09/03 01:03:58;;;;;;;;;12.00;12.00;;;;;;;;5022217;28;9006;-80
2022/09/03 01:06:32;;;;;;;;;11.75;11.75;;;;;;;;5022795;28;8860;-79
2022/09/03 01:09:10;;;;;;;;;15.25;15.25;;;;;;;;5022062;28;9713;-79
2022/09/03 01:11:46;;;;;;;;;12.00;11.75;;;;;;;;5006993;28;8888;-79
2022/09/03 01:14:22;;;;;;;;;12.00;12.00;;;;;;;;5023761;28;8864;-79
2022/09/03 01:16:54;;;;;;;;;10.50;10.50;;;;;;;;5021861;28;8876;-79
2022/09/03 01:19:51;;;;;;;;;12.50;11.00;;;;;;;;5023539;28;8853;-79
2022/09/03 01:22:49;;;;;;;;;14.00;12.50;;;;;;;;5005473;28;8864;-79
2022/09/03 01:25:22;;;;;;;;;11.75;11.75;;;;;;;;5022434;28;8904;-79
2022/09/03 01:28:12;;;;;;;;;13.75;13.75;;;;;;;;5022661;28;8813;-79
2022/09/03 01:30:41;;;;;;;;;11.00;9.25;;;;;;;;5022120;28;8807;-79
2022/09/03 01:33:15;;;;;;;;;14.00;11.00;;;;;;;;5022641;28;8877;-77
2022/09/03 01:35:47;;;;;;;;;13.00;13.00;;;;;;;;5021675;28;8853;-76
2022/09/03 01:38:24;;;;;;;;;13.00;12.50;;;;;;;;5022129;28;8865;-77
2022/09/03 01:42:12;;;;;;;;;12.00;12.00;;;;;;;;5022617;28;8876;-77
2022/09/03 01:43:56;;;;;;;;;11.75;9.75;;;;;;;;5014889;28;8934;-78
2022/09/03 01:46:26;;;;;;;;;15.25;13.00;;;;;;;;5005639;28;8899;-75
2022/09/03 01:49:02;;;;;;;;;13.00;13.00;;;;;;;;5022665;28;8922;-79
2022/09/03 01:51:30;;;;;;;;;10.00;10.00;;;;;;;;5020990;28;8911;-80
2022/09/03 01:54:31;;;;;;;;;14.50;14.50;;;;;;;;5005623;28;8883;-77
2022/09/03 01:57:20;;;;;;;;;13.00;13.00;;;;;;;;5020954;28;8853;-78
2022/09/03 01:59:53;;;;;;;;;12.75;12.25;;;;;;;;5022015;28;8978;-78
2022/09/03 02:02:24;;;;;;;;;11.00;11.00;;;;;;;;5021251;28;8801;-78
2022/09/03 02:05:00;;;;;;;;;14.00;11.50;;;;;;;;5022289;28;8879;-78
2022/09/03 02:07:33;;;;;;;;;11.00;11.00;;;;;;;;5018056;28;8885;-78
2022/09/03 02:10:01;;;;;;;;;11.50;11.50;;;;;;;;5020959;28;8918;-78
2022/09/03 02:12:31;;;;;;;;;13.50;13.50;;;;;;;;5022090;28;8880;-78
2022/09/03 02:15:02;;;;;;;;;8.75;8.75;;;;;;;;5022530;28;8975;-78
2022/09/03 02:17:30;;;;;;;;;11.75;11.75;;;;;;;;5021501;28;8872;-78
2022/09/03 02:19:58;;;;;;;;;13.75;13.75;;;;;;;;5022262;28;8881;-78
2022/09/03 02:22:27;;;;;;;;;11.75;11.75;;;;;;;;5021312;28;8892;-78
2022/09/03 02:24:55;;;;;;;;;13.25;12.25;;;;;;;;5022402;28;8884;-78
2022/09/03 02:27:22;;;;;;;;;12.00;12.00;;;;;;;;5020994;28;8885;-79
2022/09/03 02:29:49;;;;;;;;;11.00;11.00;;;;;;;;5022718;28;8934;-78
2022/09/03 02:32:18;;;;;;;;;12.00;12.00;;;;;;;;5021546;28;8824;-78
2022/09/03 02:34:46;;;;;;;;;15.50;12.75;;;;;;;;5021722;28;8876;-78
2022/09/03 02:37:14;;;;;;;;;10.50;10.50;;;;;;;;5022126;28;8880;-78
2022/09/03 02:39:41;;;;;;;;;11.25;11.25;;;;;;;;5021298;28;8873;-78
2022/09/03 02:42:11;;;;;;;;;12.00;10.50;;;;;;;;5020421;28;8872;-78
2022/09/03 02:44:42;;;;;;;;;14.75;14.25;;;;;;;;5020834;28;8868;-79
2022/09/03 02:47:10;;;;;;;;;15.75;15.75;;;;;;;;5021860;28;8872;-79
2022/09/03 02:49:38;;;;;;;;;10.50;10.50;;;;;;;;5021715;28;8900;-79
2022/09/03 02:52:10;;;;;;;;;12.00;12.00;;;;;;;;5021529;28;8860;-79
2022/09/03 02:54:39;;;;;;;;;12.75;12.75;;;;;;;;5023100;28;8880;-79
2022/09/03 02:57:07;;;;;;;;;12.00;12.00;;;;;;;;5021205;28;8896;-79
2022/09/03 02:59:35;;;;;;;;;12.75;12.75;;;;;;;;5021713;28;8880;-77
2022/09/03 03:02:02;;;;;;;;;14.25;10.00;;;;;;;;5020080;28;8855;-78
2022/09/03 03:04:30;;;;;;;;;13.25;13.25;;;;;;;;5022854;28;8865;-77
2022/09/03 03:06:59;;;;;;;;;12.50;11.50;;;;;;;;5021300;28;8863;-77
2022/09/03 03:09:27;;;;;;;;;10.75;10.75;;;;;;;;5022656;28;8872;-77
2022/09/03 03:11:55;;;;;;;;;15.50;14.00;;;;;;;;5007856;28;8877;-77
2022/09/03 03:14:22;;;;;;;;;12.75;11.75;;;;;;;;5007461;28;8872;-77
2022/09/03 03:16:51;;;;;;;;;12.00;12.00;;;;;;;;5023218;28;8996;-77
2022/09/03 03:19:18;;;;;;;;;12.00;12.00;;;;;;;;5024610;28;8872;-75
2022/09/03 03:21:45;;;;;;;;;13.25;12.00;;;;;;;;5025591;28;9638;-75
2022/09/03 03:24:14;;;;;;;;;14.00;14.00;;;;;;;;5025244;28;8934;-76
2022/09/03 03:26:42;;;;;;;;;12.50;12.00;;;;;;;;5024526;28;8894;-76
2022/09/03 03:29:09;;;;;;;;;9.00;9.00;;;;;;;;5025877;28;8874;-76
2022/09/03 03:31:37;;;;;;;;;11.25;11.25;;;;;;;;5023935;28;8832;-76
2022/09/03 03:34:04;;;;;;;;;11.00;11.00;;;;;;;;5016794;28;9029;-76
2022/09/03 03:36:33;;;;;;;;;11.00;11.00;;;;;;;;5023512;28;8872;-76
2022/09/03 03:39:01;;;;;;;;;11.50;11.50;;;;;;;;5026173;28;9736;-76
2022/09/03 03:41:32;;;;;;;;;11.50;11.50;;;;;;;;5024274;28;8865;-79
2022/09/03 03:44:01;;;;;;;;;13.00;13.00;;;;;;;;5007297;28;8979;-77
2022/09/03 03:46:31;;;;;;;;;13.00;11.25;;;;;;;;5024505;28;8882;-76
2022/09/03 03:48:59;;;;;;;;;12.00;12.00;;;;;;;;5019202;28;8867;-77
2022/09/03 03:51:26;;;;;;;;;11.75;11.75;;;;;;;;5020346;28;8876;-77
2022/09/03 03:53:56;;;;;;;;;10.50;10.50;;;;;;;;5022543;28;8911;-77
2022/09/03 03:56:25;;;;;;;;;10.00;10.00;;;;;;;;5020478;28;8909;-77
2022/09/03 03:58:54;;;;;;;;;9.00;9.00;;;;;;;;5024163;28;8887;-77
2022/09/03 04:01:22;;;;;;;;;9.25;9.25;;;;;;;;5011554;28;8847;-77
2022/09/03 04:03:50;;;;;;;;;11.00;11.00;;;;;;;;5025310;28;8868;-77
2022/09/03 04:06:19;;;;;;;;;11.75;10.50;;;;;;;;5021836;28;8879;-77
2022/09/03 04:08:47;;;;;;;;;10.75;10.75;;;;;;;;5023733;28;8900;-77
2022/09/03 04:11:17;;;;;;;;;10.00;10.00;;;;;;;;5023327;28;8900;-77
2022/09/03 04:13:46;;;;;;;;;10.50;10.50;;;;;;;;5024959;28;8852;-77
2022/09/03 04:16:17;;;;;;;;;11.50;10.50;;;;;;;;5011385;28;8888;-77
2022/09/03 04:18:45;;;;;;;;;11.00;10.75;;;;;;;;5023728;28;8904;-77
2022/09/03 04:21:15;;;;;;;;;9.25;8.00;;;;;;;;5023502;28;8883;-77
2022/09/03 04:23:44;;;;;;;;;7.25;7.25;;;;;;;;5022921;28;8995;-77
2022/09/03 04:26:12;;;;;;;;;9.00;9.00;;;;;;;;5023474;28;8895;-77
2022/09/03 04:28:40;;;;;;;;;11.75;11.75;;;;;;;;5021585;28;8860;-78
2022/09/03 04:31:09;;;;;;;;;7.00;7.00;;;;;;;;5023854;28;8845;-77
2022/09/03 04:33:38;;;;;;;;;9.75;9.75;;;;;;;;5023301;28;9670;-78
2022/09/03 04:36:07;;;;;;;;;7.50;7.50;;;;;;;;5023615;28;8856;-77
2022/09/03 04:38:35;;;;;;;;;9.50;9.50;;;;;;;;5024015;28;8857;-77
2022/09/03 04:41:02;;;;;;;;;8.50;8.50;;;;;;;;5022893;28;9007;-77
2022/09/03 04:43:30;;;;;;;;;10.25;8.50;;;;;;;;5024195;28;9650;-77
2022/09/03 04:45:58;;;;;;;;;10.00;10.00;;;;;;;;5022084;28;8881;-78
2022/09/03 04:48:26;;;;;;;;;11.25;10.75;;;;;;;;5024359;28;8876;-77
2022/09/03 04:51:04;;;;;;;;;8.25;8.25;;;;;;;;5022026;28;8884;-77
2022/09/03 04:53:32;;;;;;;;;10.00;8.75;;;;;;;;5023411;28;8861;-76
2022/09/03 04:56:02;;;;;;;;;11.00;10.75;;;;;;;;5023603;28;8849;-77
2022/09/03 04:58:30;;;;;;;;;11.00;9.50;;;;;;;;5018198;28;8874;-77
2022/09/03 05:00:57;;;;;;;;;10.75;10.00;;;;;;;;5023015;28;9589;-77
2022/09/03 05:03:24;;;;;;;;;10.75;10.75;;;;;;;;5021701;28;8840;-77
2022/09/03 05:05:56;;;;;;;;;9.50;9.50;;;;;;;;5022786;28;9668;-81
2022/09/03 05:08:25;;;;;;;;;10.25;10.25;;;;;;;;5022604;28;8884;-76
2022/09/03 05:11:00;;;;;;;;;9.00;9.00;;;;;;;;5022111;28;8986;-76
2022/09/03 05:13:27;;;;;;;;;11.00;11.00;;;;;;;;5019247;28;8961;-77
2022/09/03 05:16:00;;;;;;;;;11.00;9.75;;;;;;;;5021330;28;8896;-78
2022/09/03 05:18:27;;;;;;;;;11.00;9.25;;;;;;;;5023978;28;8872;-78
2022/09/03 05:21:00;;;;;;;;;15.25;10.50;;;;;;;;5021599;28;8888;-79
2022/09/03 05:23:27;;;;;;;;;7.50;7.50;;;;;;;;5020781;28;9642;-77
2022/09/03 05:25:58;;;;;;;;;9.25;8.75;;;;;;;;5017136;28;10024;-77
2022/09/03 05:28:26;;;;;;;;;8.00;8.00;;;;;;;;5021193;28;8872;-76
2022/09/03 05:31:00;;;;;;;;;8.25;8.25;;;;;;;;5021943;28;8942;-76
2022/09/03 05:33:28;;;;;;;;;10.00;8.25;;;;;;;;5016097;28;8902;-75
2022/09/03 05:35:55;;;;;;;;;5.00;5.00;;;;;;;;5022380;28;8925;-76
2022/09/03 05:38:24;;;;;;;;;11.50;9.25;;;;;;;;5020849;28;8884;-76
2022/09/03 05:40:52;;;;;;;;;8.25;8.25;;;;;;;;5021018;28;8911;-76
2022/09/03 05:43:19;;;;;;;;;10.75;10.75;;;;;;;;5021066;28;8969;-77
2022/09/03 05:45:47;;;;;;;;;9.25;9.25;;;;;;;;5021200;28;9643;-76
2022/09/03 05:48:15;;;;;;;;;10.25;10.25;;;;;;;;5019555;28;8871;-78
2022/09/03 05:50:42;;;;;;;;;10.50;9.25;;;;;;;;5020214;28;8876;-77
2022/09/03 05:53:09;;;;;;;;;14.00;14.00;;;;;;;;5021667;28;8860;-76
2022/09/03 05:55:38;;;;;;;;;10.75;10.75;;;;;;;;5009180;28;8873;-77
2022/09/03 05:58:06;;;;;;;;;14.00;12.25;;;;;;;;5022305;28;8885;-77
2022/09/03 06:00:33;;;;;;;;;13.25;13.25;;;;;;;;5009118;28;8847;-76
2022/09/03 06:03:00;;;;;;;;;16.00;13.75;;;;;;;;5023021;28;8975;-77
2022/09/03 06:05:27;;;;;;;;;12.25;12.25;;;;;;;;5022327;28;8907;-78
2022/09/03 06:07:55;;;;;;;;;12.75;12.75;;;;;;;;5020582;28;8872;-77
2022/09/03 06:10:22;;;;;;;;;12.00;12.00;;;;;;;;5022646;28;8860;-76
2022/09/03 06:12:53;;;;;;;;;14.00;13.00;;;;;;;;5021723;28;8892;-78
2022/09/03 06:15:20;;;;;;;;;11.25;11.25;;;;;;;;5022531;28;8845;-77
2022/09/03 06:17:47;;;;;;;;;17.00;15.50;;;;;;;;5020918;28;8872;-77
2022/09/03 06:20:15;;;;;;;;;14.50;13.75;;;;;;;;5022393;28;8865;-77
2022/09/03 06:22:42;;;;;;;;;10.75;10.75;;;;;;;;5022904;28;8868;-78
2022/09/03 06:25:10;;;;;;;;;10.50;10.50;;;;;;;;5014605;28;8869;-78
2022/09/03 06:27:38;;;;;;;;;13.00;13.00;;;;;;;;5009473;28;9019;-77
2022/09/03 06:30:08;;;;;;;;;14.00;14.00;;;;;;;;5021169;28;8877;-77
2022/09/03 06:32:35;;;;;;;;;13.25;12.75;;;;;;;;5022722;28;8976;-78
2022/09/03 06:35:02;;;;;;;;;13.50;12.00;;;;;;;;5021054;28;8899;-76
2022/09/03 06:37:30;;;;;;;;;16.00;14.00;;;;;;;;5019524;28;8881;-79
2022/09/03 06:39:57;;;;;;;;;10.50;10.50;;;;;;;;5020367;28;9675;-77
2022/09/03 06:42:24;;;;;;;;;9.00;9.00;;;;;;;;5016511;28;8886;-78
2022/09/03 06:44:52;;;;;;;;;14.25;13.00;;;;;;;;5024651;28;8864;-77
2022/09/03 06:47:20;;;;;;;;;11.00;11.00;;;;;;;;5006485;28;8972;-78
2022/09/03 06:49:48;;;;;;;;;15.00;13.75;;;;;;;;5027005;28;9006;-78
2022/09/03 06:52:15;;;;;;;;;14.25;13.00;;;;;;;;5023541;28;8999;-78
2022/09/03 06:54:42;;;;;;;;;13.00;12.25;;;;;;;;5026469;28;8865;-77
2022/09/03 06:57:09;;;;;;;;;15.75;15.25;;;;;;;;5024018;28;8888;-78
2022/09/03 06:59:37;;;;;;;;;15.75;12.75;;;;;;;;5026373;28;8880;-78
2022/09/03 07:02:04;;;;;;;;;15.25;13.75;;;;;;;;5036892;28;8837;-79
2022/09/03 07:04:33;;;;;;;;;14.50;13.25;;;;;;;;5025949;28;8860;-76
2022/09/03 07:07:00;;;;;;;;;18.25;16.25;;;;;;;;5026323;28;8876;-78
2022/09/03 07:09:28;;;;;;;;;15.25;13.50;;;;;;;;5025364;28;9833;-78
2022/09/03 07:11:55;;;;;;;;;14.25;14.25;;;;;;;;5030455;28;8869;-78
2022/09/03 07:14:23;;;;;;;;;15.50;15.50;;;;;;;;5021130;28;8944;-79
2022/09/03 07:16:50;;;;;;;;;16.25;15.00;;;;;;;;5023771;28;8999;-78
2022/09/03 07:19:17;;;;;;;;;24.25;19.00;;;;;;;;5025525;28;8868;-77
2022/09/03 07:21:46;;;;;;;;;15.75;15.75;;;;;;;;5025525;28;8898;-77
2022/09/03 07:24:14;;;;;;;;;16.75;14.75;;;;;;;;5024885;28;8876;-78
2022/09/03 07:26:43;;;;;;;;;14.25;12.75;;;;;;;;5024153;28;8890;-77
2022/09/03 07:29:11;;;;;;;;;15.00;14.50;;;;;;;;5025419;28;8869;-77
2022/09/03 07:31:41;;;;;;;;;14.75;14.75;;;;;;;;5023595;28;8821;-76
2022/09/03 07:34:10;;;;;;;;;16.75;14.75;;;;;;;;5024669;28;8949;-79
2022/09/03 07:36:40;;;;;;;;;13.75;11.75;;;;;;;;4998674;28;8875;-78
2022/09/03 07:39:10;;;;;;;;;15.00;15.00;;;;;;;;5024518;28;10144;-77
2022/09/03 07:41:37;;;;;;;;;15.50;15.50;;;;;;;;5014354;28;9027;-77
2022/09/03 07:44:06;;;;;;;;;17.50;16.25;;;;;;;;5023649;28;8891;-78
2022/09/03 07:46:35;;;;;;;;;14.50;14.50;;;;;;;;5025715;28;8908;-76
2022/09/03 07:49:04;;;;;;;;;16.25;15.00;;;;;;;;5023058;28;8868;-78
2022/09/03 07:51:34;;;;;;;;;13.80;13.20;;;;;;;;5025603;28;9018;-77
2022/09/03 07:54:03;;;;;;;;;15.20;13.80;;;;;;;;5024017;28;9372;-75
2022/09/03 07:56:33;;;;;;;;;20.40;17.20;;;;;;;;5010222;28;9043;-78
2022/09/03 07:59:02;;;;;;;;;17.40;17.20;;;;;;;;5009334;28;8975;-79
2022/09/03 08:01:31;;;;;;;;;13.00;11.60;;;;;;;;5023681;28;9714;-76
2022/09/03 08:03:59;;;;;;;;;14.50;14.50;;;;;;;;5023326;28;8880;-78
2022/09/03 08:06:28;;;;;;;;;19.00;19.00;;;;;;;;5023067;28;8880;-79
2022/09/03 08:08:57;;;;;;;;;12.40;12.40;;;;;;;;5023961;28;9051;-77
2022/09/03 08:11:26;;;;;;;;;17.25;17.00;;;;;;;;5021641;28;9020;-77
2022/09/03 08:14:00;;;;;;;;;16.50;16.50;;;;;;;;5024353;28;8896;-76
2022/09/03 08:16:28;;;;;;;;;16.25;15.00;;;;;;;;5016712;28;8991;-76
2022/09/03 08:18:55;;;;;;;;;17.50;16.50;;;;;;;;5022965;28;8868;-76
2022/09/03 08:21:23;;;;;;;;;18.00;15.00;;;;;;;;5023712;28;8904;-78
2022/09/03 08:23:52;;;;;;;;;17.20;16.00;;;;;;;;5022567;28;8895;-77
2022/09/03 08:26:21;;;;;;;;;16.40;15.60;;;;;;;;5022490;28;9030;-77
2022/09/03 08:28:48;;;;;;;;;19.50;19.50;;;;;;;;5021804;28;8950;-77
2022/09/03 08:31:18;;;;;;;;;13.60;13.60;;;;;;;;5023989;28;8825;-79
2022/09/03 08:33:47;;;;;;;;;13.60;11.20;;;;;;;;5021257;28;9111;-78
2022/09/03 08:36:16;;;;;;;;;16.00;14.80;;;;;;;;5021525;28;8868;-77
2022/09/03 08:38:45;;;;;;;;;12.80;12.80;;;;;;;;5021957;28;8868;-77
2022/09/03 08:41:15;;;;;;;;;15.80;11.20;;;;;;;;5020983;28;8909;-78
2022/09/03 08:44:07;;;;;;;;;15.60;14.60;;;;;;;;5022697;28;8868;-76
2022/09/03 08:46:43;;;;;;;;;14.00;14.00;;;;;;;;5022093;28;8965;-79
2022/09/03 08:49:13;;;;;;;;;14.00;14.00;;;;;;;;5021641;28;8868;-79
2022/09/03 08:51:42;;;;;;;;;10.00;9.20;;;;;;;;5022609;28;8882;-79
2022/09/03 08:54:10;;;;;;;;;10.80;10.80;;;;;;;;5018073;28;8876;-79
2022/09/03 08:56:40;;;;;;;;;14.00;13.80;;;;;;;;5018619;28;8879;-80
2022/09/03 08:59:07;;;;;;;;;13.20;12.00;;;;;;;;5021271;28;8884;-78
2022/09/03 09:01:48;;;;;;;;;16.00;13.60;;;;;;;;5020571;28;8824;-78
2022/09/03 09:04:26;;;;;;;;;17.00;14.80;;;;;;;;5020037;28;8865;-78
2022/09/03 09:06:58;;;;;;;;;12.00;12.00;;;;;;;;5020946;28;8891;-78
2022/09/03 09:09:31;;;;;;;;;13.20;13.20;;;;;;;;5021491;28;8994;-78
2022/09/03 09:12:13;;;;;;;;;12.40;10.20;;;;;;;;5012659;28;9675;-80
2022/09/03 09:14:47;;;;;;;;;14.80;13.60;;;;;;;;5016993;28;8897;-78
2022/09/03 09:17:32;;;;;;;;;8.20;8.20;;;;;;;;5020010;28;8861;-77
2022/09/03 09:20:07;;;;;;;;;16.60;15.80;;;;;;;;4978758;28;8873;-77
2022/09/03 09:22:38;;;;;;;;;11.00;11.00;;;;;;;;4981742;28;8887;-79
2022/09/03 09:25:13;;;;;;;;;12.40;11.20;;;;;;;;4979483;28;8824;-80
2022/09/03 09:27:45;;;;;;;;;12.80;12.80;;;;;;;;4980954;28;9019;-81
2022/09/03 09:30:16;;;;;;;;;10.80;10.80;;;;;;;;4982109;28;8882;-79
2022/09/03 09:32:46;;;;;;;;;11.60;11.60;;;;;;;;4982648;28;8899;-85
2022/09/03 09:35:14;;;;;;;;;11.00;11.00;;;;;;;;4983700;28;8865;-80
2022/09/03 09:37:52;;;;;;;;;10.00;10.00;;;;;;;;4980990;28;8892;-79
2022/09/03 09:40:31;;;;;;;;;10.80;10.80;;;;;;;;4983513;28;8907;-80
2022/09/03 09:43:06;;;;;;;;;10.60;10.60;;;;;;;;4984371;28;8988;-80
2022/09/03 09:45:34;;;;;;;;;7.40;7.40;;;;;;;;4981466;28;8869;-81
2022/09/03 09:48:09;;;;;;;;;9.80;9.20;;;;;;;;4981265;28;8881;-80
2022/09/03 09:50:37;;;;;;;;;11.40;9.00;;;;;;;;4981635;28;10198;-77
2022/09/03 09:53:13;;;;;;;;;9.40;9.40;;;;;;;;4982715;28;9008;-83
2022/09/03 09:55:50;;;;;;;;;9.00;9.00;;;;;;;;4978118;28;8926;-77
2022/09/03 09:58:21;;;;;;;;;7.40;7.40;;;;;;;;4982739;28;9791;-80
2022/09/03 10:01:12;;;;;;;;;9.60;9.60;;;;;;;;4981458;28;8916;-77
2022/09/03 10:03:48;;;;;;;;;9.40;9.40;;;;;;;;4982392;28;9475;-76
2022/09/03 10:09:09;;;;;;;;;11.00;11.00;;;;;;;;4979837;28;8837;-77
2022/09/03 10:11:39;;;;;;;;;10.00;8.80;;;;;;;;4979087;28;8861;-78
2022/09/03 10:14:11;;;;;;;;;9.80;9.00;;;;;;;;4980011;28;8884;-79
2022/09/03 10:16:47;;;;;;;;;9.40;9.00;;;;;;;;4981216;28;8901;-79
2022/09/03 10:19:19;;;;;;;;;10.00;10.00;;;;;;;;5015105;28;8867;-77
2022/09/03 10:21:54;;;;;;;;;11.20;9.80;;;;;;;;5023557;28;8872;-78
2022/09/03 10:24:42;;;;;;;;;8.40;8.40;;;;;;;;5021346;28;8864;-77
2022/09/03 10:27:11;;;;;;;;;8.40;8.00;;;;;;;;5012395;28;8877;-78
2022/09/03 10:29:40;;;;;;;;;7.60;7.60;;;;;;;;5026324;28;8879;-77
2022/09/03 10:32:24;;;;;;;;;7.60;7.60;;;;;;;;5027442;28;8844;-79
2022/09/03 10:35:00;;;;;;;;;6.40;6.40;;;;;;;;5024857;28;8869;-78
2022/09/03 10:37:34;;;;;;;;;8.00;7.00;;;;;;;;5026458;28;8868;-77
2022/09/03 10:40:19;;;;;;;;;8.00;6.20;;;;;;;;5018959;28;9393;-77
2022/09/03 10:42:53;;;;;;;;;7.60;7.60;;;;;;;;5023542;28;8899;-77
2022/09/03 10:45:28;;;;;;;;;7.00;7.00;;;;;;;;5024971;28;8868;-77
2022/09/03 10:48:37;;;;;;;;;4.00;4.00;;;;;;;;5013103;28;8882;-76
2022/09/03 10:51:10;;;;;;;;;4.80;4.80;;;;;;;;4926454;28;8901;-80
2022/09/03 10:53:52;;;;;;;;;4.20;4.20;;;;;;;;5003547;28;8864;-76
2022/09/03 10:56:25;;;;;;;;;5.00;3.80;;;;;;;;5002533;28;8895;-82
2022/09/03 10:59:03;;;;;;;;;3.60;3.60;;;;;;;;5025810;28;8880;-83
2022/09/03 11:01:38;;;;;;;;;5.60;4.20;;;;;;;;5025789;28;8820;-80
2022/09/03 11:04:28;;;;;;;;;3.00;3.00;;;;;;;;5025645;28;8950;-83
2022/09/03 11:07:04;;;;;;;;;4.40;4.40;;;;;;;;5030150;28;8849;-80
2022/09/03 11:09:37;;;;;;;;;3.60;3.60;;;;;;;;5023564;28;8870;-85
2022/09/03 11:12:08;;;;;;;;;5.00;4.60;;;;;;;;5026977;28;8868;-84
2022/09/03 11:14:38;;;;;;;;;3.20;3.20;;;;;;;;5025951;28;8864;-84
2022/09/03 11:17:10;;;;;;;;;7.00;5.80;;;;;;;;5023245;28;8889;-77
2022/09/03 11:19:51;;;;;;;;;4.60;4.60;;;;;;;;5023225;28;8890;-77
2022/09/03 11:22:22;;;;;;;;;3.40;3.40;;;;;;;;5041365;28;8880;-76
2022/09/03 11:24:53;;;;;;;;;5.00;4.20;;;;;;;;5025528;28;8914;-76
2022/09/03 11:27:31;;;;;;;;;4.00;4.00;;;;;;;;5025471;28;8864;-76
2022/09/03 11:30:04;;;;;;;;;4.40;3.40;;;;;;;;5020985;28;8899;-76
2022/09/03 11:32:41;;;;;;;;;2.40;2.40;;;;;;;;5004107;28;8861;-76
2022/09/03 11:35:16;;;;;;;;;4.00;4.00;;;;;;;;5002646;28;9672;-76
2022/09/03 11:37:54;;;;;;;;;4.00;4.00;;;;;;;;5005035;28;8891;-76
2022/09/03 11:40:25;;;;;;;;;2.80;2.80;;;;;;;;4995131;28;8874;-75
2022/09/03 11:42:52;;;;;;;;;5.00;3.20;;;;;;;;5003931;28;9017;-77
2022/09/03 11:45:35;;;;;;;;;4.00;4.00;;;;;;;;5004703;28;8871;-75
2022/09/03 11:48:04;;;;;;;;;3.40;3.40;;;;;;;;5003312;28;8855;-75
2022/09/03 11:50:33;;;;;;;;;5.00;5.00;;;;;;;;5004668;28;8953;-76
2022/09/03 11:53:10;;;;;;;;;3.80;3.80;;;;;;;;4999168;28;8899;-75
2022/09/03 11:55:53;;;;;;;;;6.60;6.60;;;;;;;;5005111;28;8998;-75
2022/09/03 11:58:25;;;;;;;;;5.20;5.20;;;;;;;;5005815;28;8879;-75
2022/09/03 12:00:53;;;;;;;;;3.00;3.00;;;;;;;;5003303;28;8856;-76
2022/09/03 12:03:27;;;;;;;;;4.00;4.00;;;;;;;;5002863;28;9671;-76
2022/09/03 12:06:18;;;;;;;;;5.00;5.00;;;;;;;;5003940;28;8866;-76
2022/09/03 12:09:02;;;;;;;;;5.00;5.00;;;;;;;;5005090;28;8948;-76
2022/09/03 12:11:49;;;;;;;;;4.20;4.20;;;;;;;;4999233;28;8944;-76
2022/09/03 12:14:22;;;;;;;;;5.60;4.40;;;;;;;;5001404;28;8871;-75
2022/09/03 12:17:04;;;;;;;;;3.00;3.00;;;;;;;;5005131;28;8909;-75
2022/09/03 12:19:37;;;;;;;;;4.80;4.80;;;;;;;;5005044;28;8882;-75
2022/09/03 12:22:05;;;;;;;;;4.00;4.00;;;;;;;;5000520;28;8878;-74
2022/09/03 12:24:34;;;;;;;;;4.80;4.80;;;;;;;;5005442;28;8874;-75
2022/09/03 12:27:02;;;;;;;;;3.80;3.80;;;;;;;;5003967;28;8882;-75
2022/09/03 12:29:32;;;;;;;;;6.20;5.00;;;;;;;;5005428;28;8905;-75
2022/09/03 12:32:07;;;;;;;;;3.00;3.00;;;;;;;;4985423;28;8817;-75
2022/09/03 12:34:35;;;;;;;;;3.80;3.80;;;;;;;;5004686;28;8868;-75
2022/09/03 12:37:04;;;;;;;;;4.00;4.00;;;;;;;;5004046;28;8860;-75
2022/09/03 12:39:34;;;;;;;;;2.00;2.00;;;;;;;;5001170;28;8852;-75
2022/09/03 12:42:04;;;;;;;;;3.80;3.80;;;;;;;;5004383;28;8880;-75
2022/09/03 12:44:32;;;;;;;;;5.00;3.20;;;;;;;;5009637;28;8872;-75
2022/09/03 12:47:04;;;;;;;;;4.00;4.00;;;;;;;;5004668;28;8848;-75
2022/09/03 12:49:36;;;;;;;;;5.00;5.00;;;;;;;;5003975;28;8871;-75
2022/09/03 12:52:12;;;;;;;;;3.80;3.20;;;;;;;;5002302;28;9618;-75
2022/09/03 12:54:47;;;;;;;;;2.00;2.00;;;;;;;;4998736;28;8980;-75
2022/09/03 12:57:20;;;;;;;;;3.80;3.80;;;;;;;;5000255;28;8938;-75
2022/09/03 12:59:49;;;;;;;;;3.40;3.40;;;;;;;;5005110;28;8914;-75
2022/09/03 13:02:21;;;;;;;;;2.20;2.20;;;;;;;;5003236;28;9608;-74
2022/09/03 13:04:48;;;;;;;;;3.80;3.80;;;;;;;;5004741;28;8901;-74
2022/09/03 13:07:24;;;;;;;;;3.00;3.00;;;;;;;;5004044;28;8878;-74
2022/09/03 13:10:02;;;;;;;;;2.80;2.80;;;;;;;;5004154;28;8886;-75
2022/09/03 13:12:32;;;;;;;;;4.20;4.20;;;;;;;;5000804;28;8858;-75
2022/09/03 13:15:07;;;;;;;;;3.40;3.40;;;;;;;;4999508;28;9671;-75
2022/09/03 13:17:48;;;;;;;;;2.00;2.00;;;;;;;;5004190;28;8993;-75
2022/09/03 13:20:33;;;;;;;;;3.60;3.60;;;;;;;;5003841;28;8889;-75
2022/09/03 13:23:10;;;;;;;;;2.40;2.40;;;;;;;;5002804;28;8897;-75
2022/09/03 13:25:49;;;;;;;;;4.40;4.40;;;;;;;;5003023;28;8858;-74
2022/09/03 13:28:26;;;;;;;;;3.40;3.40;;;;;;;;4999857;28;8904;-74
2022/09/03 13:30:57;;;;;;;;;3.60;3.60;;;;;;;;5001027;28;8842;-75
2022/09/03 13:33:28;;;;;;;;;3.40;3.40;;;;;;;;5004589;28;9592;-75
2022/09/03 13:36:00;;;;;;;;;4.60;3.00;;;;;;;;5002664;28;9786;-74
2022/09/03 13:38:33;;;;;;;;;2.80;2.80;;;;;;;;5003827;28;8875;-75
2022/09/03 13:41:09;;;;;;;;;3.40;3.40;;;;;;;;4999665;28;8898;-75
2022/09/03 13:43:41;;;;;;;;;4.00;4.00;;;;;;;;5004010;28;8898;-75
2022/09/03 13:46:12;;;;;;;;;0.00;0.00;;;;;;;;5000073;28;8851;-74
2022/09/03 13:51:28;;;;;;;;;1.80;1.80;;;;;;;;5003785;28;8851;-75
2022/09/03 13:54:05;;;;;;;;;3.00;3.00;;;;;;;;5002458;28;8906;-75
2022/09/03 13:56:51;;;;;;;;;3.00;2.40;;;;;;;;5003664;28;8968;-75
2022/09/03 13:59:24;;;;;;;;;2.20;2.20;;;;;;;;5003239;28;8866;-75
2022/09/03 14:02:21;;;;;;;;;2.40;2.40;;;;;;;;5002430;28;8847;-75
2022/09/03 14:04:59;;;;;;;;;3.60;2.00;;;;;;;;5001178;28;8884;-75
2022/09/03 14:07:29;;;;;;;;;2.00;2.00;;;;;;;;4995024;28;8973;-74
2022/09/03 14:10:01;;;;;;;;;4.40;2.80;;;;;;;;5003338;28;9574;-75
2022/09/03 14:12:37;;;;;;;;;2.00;2.00;;;;;;;;5003804;28;8891;-75
2022/09/03 14:15:10;;;;;;;;;2.00;2.00;;;;;;;;5002771;28;8880;-75
2022/09/03 14:17:41;;;;;;;;;3.00;3.00;;;;;;;;5003401;28;8930;-75
2022/09/03 14:20:13;;;;;;;;;1.00;1.00;;;;;;;;5001740;28;8898;-75
2022/09/03 14:22:49;;;;;;;;;3.00;3.00;;;;;;;;5003675;28;8868;-75
2022/09/03 14:25:17;;;;;;;;;3.40;3.40;;;;;;;;4995380;28;8868;-75
2022/09/03 14:27:49;;;;;;;;;2.00;2.00;;;;;;;;5002496;28;8856;-75
2022/09/03 14:30:28;;;;;;;;;3.20;2.80;;;;;;;;5003392;28;8934;-75
2022/09/03 14:33:02;;;;;;;;;2.00;2.00;;;;;;;;5002576;28;8891;-75
2022/09/03 14:35:38;;;;;;;;;2.00;2.00;;;;;;;;5003448;28;9104;-75
2022/09/03 14:38:29;;;;;;;;;3.00;3.00;;;;;;;;4995571;28;8888;-75
2022/09/03 14:41:05;;;;;;;;;3.00;3.00;;;;;;;;5002432;28;8861;-75
2022/09/03 14:44:03;;;;;;;;;2.20;2.20;;;;;;;;4992533;28;8951;-75
2022/09/03 14:46:41;;;;;;;;;2.20;2.20;;;;;;;;4993353;28;9691;-75
2022/09/03 14:49:31;;;;;;;;;2.00;2.00;;;;;;;;5002901;28;9701;-75
2022/09/03 14:52:08;;;;;;;;;2.00;2.00;;;;;;;;5000689;28;8949;-74
2022/09/03 14:54:49;;;;;;;;;2.00;2.00;;;;;;;;4996145;28;8887;-75
2022/09/03 14:57:37;;;;;;;;;2.00;2.00;;;;;;;;5003176;28;10338;-75
2022/09/03 15:00:10;;;;;;;;;1.20;1.20;;;;;;;;5002097;28;8864;-75
2022/09/03 15:03:01;;;;;;;;;1.20;1.20;;;;;;;;4994472;28;8942;-75
2022/09/03 15:05:42;;;;;;;;;1.00;1.00;;;;;;;;5003829;28;8868;-75
2022/09/03 15:08:19;;;;;;;;;1.60;1.60;;;;;;;;5005506;28;8873;-75
2022/09/03 15:10:50;;;;;;;;;1.80;0.60;;;;;;;;4992405;28;8964;-75
2022/09/03 15:13:19;;;;;;;;;1.00;1.00;;;;;;;;5005122;28;8883;-75
2022/09/03 15:16:00;;;;;;;;;0.00;0.00;;;;;;;;5005921;28;8856;-74